Latest Weather Observations for Frederick Reef

IDQ60801

Issued at 8:32 pm EST Thursday 25 April 2024 (issued every 10 minutes, with the page automatically refreshed every 10 minutes)

About weather observations | Map of weather stations | Latest weather observations for QLD | Other Formats
Station Details ID: 200701 Name: FREDERICK REEF Lat: -20.94 Lon: 154.40 Height: 4.9 m
Data from the previous 72 hours. | See also: Recent months at Frederick Reef
Date/Time
EST
Temp
°C
App
Temp
°C
Dew
Point
°C
Rel
Hum
%
Delta-T
°C
Wind Press
QNH
hPa
Press
MSL
hPa
Rain since
9am
mm
Dir  Spd
km/h
Gust
km/h
Spd
kts
Gust
kts
25/08:30pm 25.5 - - - - S 22 28 12 15 1015.1 1015.1 -
25/08:00pm 25.6 - - - - S 24 28 13 15 1014.8 1014.8 -
25/07:30pm 25.5 - - - - SSE 22 26 12 14 1014.5 1014.5 -
25/07:00pm 25.4 - - - - SSE 20 24 11 13 1014.1 1014.1 -
25/06:30pm 25.4 - - - - SSE 24 28 13 15 1013.7 1013.7 -
25/06:00pm 25.5 - - - - SSE 6 28 3 15 1013.6 1013.6 -
25/05:30pm 25.4 - - - - SSE 28 32 15 17 1013.4 1013.4 -
25/05:00pm 25.5 - - - - SSE 26 30 14 16 1013.1 1013.1 -
25/04:30pm 25.6 - - - - SSE 24 28 13 15 1012.8 1012.8 -
25/04:00pm 25.5 - - - - SSE 26 32 14 17 1012.5 1012.5 -
25/03:30pm 25.6 - - - - SSE 26 30 14 16 1012.3 1012.3 -
25/03:00pm 25.8 - - - - SSE 24 30 13 16 1012.3 1012.3 -
25/02:30pm 25.5 - - - - SSE 26 30 14 16 1012.3 1012.3 -
25/02:00pm 25.5 - - - - SE 26 28 14 15 1012.3 1012.3 -
25/01:30pm 25.4 - - - - SSE 26 30 14 16 1012.5 1012.5 -
25/01:00pm 25.4 - - - - SE 28 32 15 17 1012.9 1012.9 -
25/12:30pm 25.4 - - - - SSE 28 33 15 18 1013.2 1013.2 -
25/12:00pm 25.5 - - - - SE 28 32 15 17 1013.5 1013.5 -
25/11:30am 25.4 - - - - SE 28 35 15 19 1013.9 1013.9 -
25/11:00am 25.3 - - - - SE 28 32 15 17 1014.4 1014.4 -
25/10:30am 25.5 - - - - SE 26 28 14 15 1014.7 1014.7 -
25/10:00am 25.4 - - - - SE 28 32 15 17 1015.0 1015.0 -
25/09:30am 25.4 - - - - SE 28 33 15 18 1014.9 1014.9 -
25/09:00am 25.3 - - - - SE 28 32 15 17 1014.9 1014.9 -
25/08:30am 25.3 - - - - SE 30 33 16 18 1014.8 1014.8 -
25/08:00am 25.2 - - - - SE 26 32 14 17 1014.7 1014.7 -
25/07:30am 25.2 - - - - SE 28 35 15 19 1014.4 1014.4 -
25/07:00am 25.5 - - - - SE 28 33 15 18 1014.2 1014.2 -
25/06:30am 25.2 - - - - SE 30 33 16 18 1013.9 1013.9 -
25/06:00am 25.4 - - - - SE 30 37 16 20 1013.7 1013.7 -
25/05:30am 25.2 - - - - SE 30 35 16 19 1013.4 1013.4 -
25/05:00am 25.1 - - - - SE 32 33 17 18 1013.2 1013.2 -
25/04:30am 25.3 - - - - SE 28 35 15 19 1013.0 1013.0 -
25/04:00am 25.1 - - - - SE 30 35 16 19 1012.8 1012.8 -
25/03:30am 25.1 - - - - SE 32 35 17 19 1012.7 1012.7 -
25/03:00am 25.2 - - - - SE 32 35 17 19 1013.0 1013.0 -
25/02:30am 25.2 - - - - SE 32 37 17 20 1013.1 1013.1 -
25/02:00am 24.5 - - - - E 22 28 12 15 1013.5 1013.5 -
25/01:30am 24.7 - - - - ESE 33 37 18 20 1013.6 1013.6 -
25/01:00am 24.9 - - - - SE 32 44 17 24 1013.9 1013.9 -
25/12:30am 25.3 - - - - SE 28 32 15 17 1014.2 1014.2 -
25/12:00am 25.4 - - - - SE 30 35 16 19 1014.5 1014.5 -
 
Date/Time
EST
Temp
°C
App
Temp
°C
Dew
Point
°C
Rel
Hum
%
Delta-T
°C
Wind Press
QNH
hPa
Press
MSL
hPa
Rain since
9am
mm
Dir  Spd
km/h
Gust
km/h
Spd
kts
Gust
kts
24/11:30pm 25.4 - - - - SE 32 35 17 19 1014.7 1014.7 -
24/11:00pm 25.5 - - - - SE 35 39 19 21 1014.9 1014.9 -
24/10:30pm 25.3 - - - - SE 24 30 13 16 1015.1 1015.1 -
24/10:00pm 25.4 - - - - SE 28 35 15 19 1014.9 1014.9 -
24/09:30pm 25.6 - - - - SSE 26 30 14 16 1015.0 1015.0 -
24/09:00pm 25.6 - - - - SE 30 33 16 18 1015.0 1015.0 -
24/08:30pm 25.7 - - - - SE 30 32 16 17 1014.9 1014.9 -
24/08:00pm 25.7 - - - - SE 28 33 15 18 1014.8 1014.8 -
24/07:30pm 25.5 - - - - SSE 20 26 11 14 1014.7 1014.7 -
24/07:00pm 25.3 - - - - SE 22 26 12 14 1014.3 1014.3 -
24/06:30pm 25.1 - - - - SE 24 28 13 15 1013.8 1013.8 -
24/06:00pm 25.4 - - - - SE 26 30 14 16 1013.8 1013.8 -
24/05:30pm 25.7 - - - - SSE 22 26 12 14 1013.7 1013.7 -
24/05:00pm 25.6 - - - - SSE 20 24 11 13 1013.5 1013.5 -
24/04:30pm 25.6 - - - - SSE 19 22 10 12 1013.3 1013.3 -
24/04:00pm 25.7 - - - - SSE 19 20 10 11 1013.2 1013.2 -
24/03:30pm 25.6 - - - - SSE 13 22 7 12 1013.1 1013.1 -
24/03:00pm 25.3 - - - - SSE 24 28 13 15 1013.1 1013.1 -
24/02:30pm 25.7 - - - - SSE 24 28 13 15 1013.2 1013.2 -
24/02:00pm 26.0 - - - - SSE 19 20 10 11 1013.5 1013.5 -
24/01:30pm 25.8 - - - - SSE 20 24 11 13 1013.7 1013.7 -
24/01:00pm 25.9 - - - - SSE 17 20 9 11 1013.9 1013.9 -
24/12:30pm 25.7 - - - - SSE 22 26 12 14 1014.0 1014.0 -
24/12:00pm 25.7 - - - - SE 22 26 12 14 1014.3 1014.3 -
24/11:30am 25.7 - - - - SE 22 26 12 14 1014.5 1014.5 -
24/11:00am 25.7 - - - - SE 22 24 12 13 1015.0 1015.0 -
24/10:30am 25.6 - - - - SE 20 26 11 14 1015.3 1015.3 -
24/10:00am 25.6 - - - - ESE 22 26 12 14 1015.4 1015.4 -
24/09:30am 25.7 - - - - SE 24 28 13 15 1015.4 1015.4 -
24/09:00am 25.4 - - - - SE 26 30 14 16 1015.4 1015.4 -
24/08:30am 25.4 - - - - SE 26 32 14 17 1015.2 1015.2 -
24/08:00am 25.4 - - - - SE 26 30 14 16 1015.0 1015.0 -
24/07:30am 25.4 - - - - SE 26 32 14 17 1014.6 1014.6 -
24/07:00am 25.2 - - - - SE 28 32 15 17 1014.3 1014.3 -
24/06:30am 25.3 - - - - SE 28 32 15 17 1014.2 1014.2 -
24/06:00am 25.4 - - - - SE 28 32 15 17 1014.1 1014.1 -
24/05:30am 25.3 - - - - SE 26 33 14 18 1013.8 1013.8 -
24/05:00am 25.3 - - - - SE 30 35 16 19 1013.5 1013.5 -
24/04:30am 25.3 - - - - SE 30 35 16 19 1013.3 1013.3 -
24/04:00am 25.3 - - - - SE 30 35 16 19 1013.3 1013.3 -
24/03:30am 25.2 - - - - SE 32 35 17 19 1013.4 1013.4 -
24/03:00am 25.2 - - - - SE 32 37 17 20 1013.4 1013.4 -
24/02:30am 25.3 - - - - SE 32 39 17 21 1013.6 1013.6 -
24/02:00am 25.4 - - - - SE 32 35 17 19 1014.0 1014.0 -
24/01:30am 25.4 - - - - SE 32 37 17 20 1014.3 1014.3 -
24/01:00am 25.5 - - - - SE 32 39 17 21 1014.7 1014.7 -
24/12:30am 25.6 - - - - SE 35 41 19 22 1014.8 1014.8 -
24/12:00am 25.6 - - - - SE 37 43 20 23 1015.0 1015.0 -
 
Date/Time
EST
Temp
°C
App
Temp
°C
Dew
Point
°C
Rel
Hum
%
Delta-T
°C
Wind Press
QNH
hPa
Press
MSL
hPa
Rain since
9am
mm
Dir  Spd
km/h
Gust
km/h
Spd
kts
Gust
kts
23/11:30pm 25.5 - - - - SE 39 43 21 23 1015.1 1015.1 -
23/11:00pm 25.6 - - - - SE 39 46 21 25 1015.3 1015.3 -
23/10:30pm 25.7 - - - - SE 39 46 21 25 1015.5 1015.5 -
23/10:00pm 25.7 - - - - SE 41 46 22 25 1015.4 1015.4 -
23/09:30pm 25.7 - - - - SE 43 48 23 26 1015.5 1015.5 -
23/09:00pm 25.9 - - - - SE 44 50 24 27 1015.5 1015.5 -
23/08:30pm 25.7 - - - - SE 48 54 26 29 1015.3 1015.3 -
23/08:00pm 25.5 - - - - SE 44 52 24 28 1015.2 1015.2 -
23/07:30pm 24.3 - - - - SE 46 56 25 30 1015.1 1015.1 -
23/07:00pm 25.3 - - - - SE 44 50 24 27 1014.6 1014.6 -
23/06:30pm 25.7 - - - - SE 46 50 25 27 1014.1 1014.1 -
23/06:00pm 25.3 - - - - SE 46 54 25 29 1013.8 1013.8 -
23/05:30pm 25.6 - - - - SE 46 52 25 28 1013.6 1013.6 -
23/05:00pm 25.8 - - - - SE 46 54 25 29 1013.4 1013.4 -
23/04:30pm 25.9 - - - - SE 46 54 25 29 1013.4 1013.4 -
23/04:00pm 25.8 - - - - SE 48 54 26 29 1013.2 1013.2 -
23/03:30pm 25.5 - - - - SSE 50 56 27 30 1013.2 1013.2 -
23/03:00pm 25.9 - - - - SSE 50 56 27 30 1013.2 1013.2 -
23/02:30pm 25.9 - - - - SSE 48 54 26 29 1013.4 1013.4 -
23/02:00pm 25.8 - - - - SE 46 56 25 30 1013.6 1013.6 -
23/01:30pm 25.9 - - - - SE 46 52 25 28 1013.9 1013.9 -
23/01:00pm 25.6 - - - - SSE 43 52 23 28 1014.2 1014.2 -
23/12:30pm 25.4 - - - - SE 43 54 23 29 1014.4 1014.4 -
23/12:12pm 25.0 - - - - SSE 44 54 24 29 1014.8 - -
23/12:00pm 25.4 - - - - SE 44 50 24 27 1014.7 1014.7 -
23/11:30am 24.9 - - - - ESE 50 56 27 30 1015.0 1015.0 -
23/11:00am 25.7 - - - - SE 46 54 25 29 1015.4 1015.4 -
23/10:30am 25.1 - - - - SE 48 57 26 31 1015.5 1015.5 -
23/10:00am 25.7 - - - - SE 50 57 27 31 1015.6 1015.6 -
23/09:30am 25.7 - - - - SE 50 56 27 30 1015.7 1015.7 -
23/09:00am 25.9 - - - - SE 46 54 25 29 1015.7 1015.7 -
23/08:30am 25.3 - - - - SE 50 61 27 33 1015.5 1015.5 -
23/08:16am 23.9 - - - - SE 44 63 24 34 1015.6 1015.6 -
23/08:00am 24.8 - - - - SE 44 56 24 30 1015.4 1015.4 -
23/07:30am 25.7 - - - - SE 50 57 27 31 1014.9 1014.9 -
23/07:00am 25.6 - - - - SE 50 59 27 32 1014.4 1014.4 -
23/06:30am 25.4 - - - - SE 50 59 27 32 1014.3 1014.3 -
23/06:00am 25.4 - - - - SE 50 57 27 31 1014.0 1014.0 -
23/05:30am 25.4 - - - - SE 54 57 29 31 1013.5 1013.5 -
23/05:00am 25.2 - - - - SE 52 57 28 31 1013.2 1013.2 -
23/04:30am 25.2 - - - - SE 54 59 29 32 1013.0 1013.0 -
23/04:00am 24.8 - - - - SE 52 61 28 33 1012.9 1012.9 -
23/03:30am 23.1 - - - - SE 54 63 29 34 1013.0 1013.0 -
23/03:00am 24.8 - - - - SSE 50 56 27 30 1012.9 1012.9 -
23/02:30am 25.1 - - - - SE 46 56 25 30 1013.0 1013.0 -
23/02:18am 25.2 - - - - SE 41 50 22 27 1013.3 1013.3 -
23/02:00am 23.8 - - - - SE 57 67 31 36 1013.2 1013.2 -
23/01:30am 25.2 - - - - SSE 50 56 27 30 1013.2 1013.2 -
23/01:00am 24.9 - - - - SE 50 57 27 31 1013.6 1013.6 -
23/12:30am 25.8 - - - - SE 48 54 26 29 1013.6 1013.6 -
23/12:00am 25.9 - - - - SE 48 54 26 29 1013.7 1013.7 -
 
Date/Time
EST
Temp
°C
App
Temp
°C
Dew
Point
°C
Rel
Hum
%
Delta-T
°C
Wind Press
QNH
hPa
Press
MSL
hPa
Rain since
9am
mm
Dir  Spd
km/h
Gust
km/h
Spd
kts
Gust
kts
22/11:30pm 25.9 - - - - SE 48 56 26 30 1013.7 1013.7 -
22/11:00pm 25.9 - - - - SE 48 54 26 29 1013.9 1013.9 -
22/10:30pm 26.0 - - - - SE 52 57 28 31 1013.9 1013.9 -
22/10:00pm 25.3 - - - - SE 52 63 28 34 1013.9 1013.9 -
22/09:30pm 25.9 - - - - SE 50 56 27 30 1013.9 1013.9 -
22/09:00pm 25.8 - - - - SE 52 57 28 31 1013.8 1013.8 -

Other formats

Comma delimited format used in spreadsheet applications
http://www.bom.gov.au/fwo/IDQ60801/IDQ60801.94393.axf

JavaScript Object Notation format (JSON) in row-major order
http://www.bom.gov.au/fwo/IDQ60801/IDQ60801.94393.json

Data quality

Most of these data are generated automatically and are frequently updated. Quality checks on data are not normally performed. It is possible for incorrect values to appear. Refer to information at About Latest Weather Observations and please check the disclaimer before using these data.